Tribbett, Mississippi
Current Conditions -  °F | °C
As of 3:53 PM on Monday 26 Jan 2015 (Local Time) from KTUP Reporting Station
Clear Clear  
Wind Chill: 45°   Ceiling: Unl
Heat Index: 49°   Visibility: 10mi
Dew Point: 30°   Wind: 9mph
Humidity: 48%   Direction: 270°W
Pressure: 29.99"   Gusts: NA
Location:  34.1966°N, 88.7098°W
Report Text: KTUP 262153Z 27008KT 10SM CLR 09/M01 A2999 RMK AO2 SLP154 T00941011
Loading
Personal Weather Stations






























Interactive Weather Map New forecast layout! Learn more

10-Day Weather Forecast

Advertisements
Track Severe Weather on mobile